Terminal Aerodrome Forecast
Issued by NWS

Home | Current Version | Previous Version | Text Only | Print | Product List | Glossary On
Versions: 1 2 3 4 5 6 7 8 9 10 11 12 13 14
000
FTUS43 KAPX 220500
TAFTVC
TAF
KTVC 220531Z 2206/2306 VRB03KT P6SM SKC
     FM220900 19003KT P6SM SCT250 WS020/22025KT
     FM221400 18009KT P6SM FEW040 BKN200
     FM221600 20010G18KT P6SM FEW060 BKN150
     FM222100 22011G18KT P6SM VCTS BKN060CB OVC150
     FM230100 23011KT P6SM SCT050
     FM230300 30011G19KT P6SM SCT020=

USA.gov is the U.S. government's official web portal to all federal, state and local government web resources and services.